createdAt,value
2022-11-26T00:00:53.401Z,8.90
2022-11-26T00:03:20.445Z,8.90
2022-11-26T00:05:49.933Z,8.90
2022-11-26T00:08:23.222Z,8.90
2022-11-26T00:10:52.180Z,8.90
2022-11-26T00:13:23.033Z,8.90
2022-11-26T00:15:50.318Z,8.90
2022-11-26T00:18:17.634Z,8.80
2022-11-26T00:20:45.261Z,8.90
2022-11-26T00:23:21.265Z,8.80
2022-11-26T00:25:53.310Z,8.80
2022-11-26T00:28:29.854Z,8.80
2022-11-26T00:30:59.397Z,8.80
2022-11-26T00:33:27.227Z,8.80
2022-11-26T00:35:57.367Z,8.80
2022-11-26T00:38:24.620Z,8.80
2022-11-26T00:40:51.410Z,8.80
2022-11-26T00:43:18.123Z,8.80
2022-11-26T00:45:45.329Z,8.80
2022-11-26T00:48:12.114Z,8.80
2022-11-26T00:50:44.029Z,8.80
2022-11-26T00:53:13.749Z,8.70
2022-11-26T00:55:44.485Z,8.80
2022-11-26T00:58:43.909Z,8.80
2022-11-26T01:01:17.302Z,8.80
2022-11-26T01:03:44.180Z,8.80
2022-11-26T01:06:32.848Z,8.80
2022-11-26T01:08:59.651Z,8.80
2022-11-26T01:11:26.706Z,8.80
2022-11-26T01:13:54.748Z,8.80
2022-11-26T01:16:23.108Z,8.80
2022-11-26T01:18:51.182Z,8.90
2022-11-26T01:21:18.658Z,8.90
2022-11-26T01:23:45.840Z,8.80
2022-11-26T01:26:18.102Z,8.80
2022-11-26T01:28:45.313Z,8.80
2022-11-26T01:31:18.410Z,8.80
2022-11-26T01:33:45.333Z,8.80
2022-11-26T01:36:33.642Z,8.80
2022-11-26T01:39:03.750Z,8.80
2022-11-26T01:41:47.195Z,8.80
2022-11-26T01:44:25.786Z,8.80
2022-11-26T01:46:52.701Z,8.80
2022-11-26T01:49:19.375Z,10.60
2022-11-26T01:51:46.835Z,8.80
2022-11-26T01:54:14.214Z,8.80
2022-11-26T01:56:41.660Z,8.80
2022-11-26T01:59:11.025Z,8.80
2022-11-26T02:01:37.915Z,8.80
2022-11-26T02:04:15.956Z,8.80
2022-11-26T02:06:43.663Z,8.70
2022-11-26T02:09:11.595Z,8.80
2022-11-26T02:11:38.680Z,8.70
2022-11-26T02:14:09.304Z,8.80
2022-11-26T02:16:46.946Z,8.80
2022-11-26T02:19:35.450Z,8.70
2022-11-26T02:22:18.064Z,8.80
2022-11-26T02:24:49.201Z,8.80
2022-11-26T02:27:57.931Z,8.90
2022-11-26T02:30:24.737Z,8.80
2022-11-26T02:32:59.253Z,8.80
2022-11-26T02:35:48.238Z,8.80
2022-11-26T02:38:19.805Z,8.70
2022-11-26T02:40:46.444Z,10.50
2022-11-26T02:43:16.263Z,8.80
2022-11-26T02:45:53.311Z,8.80
2022-11-26T02:48:27.731Z,8.70
2022-11-26T02:50:58.541Z,8.70
2022-11-26T02:53:27.046Z,8.70
2022-11-26T02:56:02.512Z,8.70
2022-11-26T02:58:29.502Z,8.80
2022-11-26T03:00:57.496Z,8.70
2022-11-26T03:03:30.361Z,8.80
2022-11-26T03:06:01.495Z,8.80
2022-11-26T03:08:28.928Z,8.80
2022-11-26T03:10:55.608Z,9.10
2022-11-26T03:13:22.237Z,8.80
2022-11-26T03:15:48.889Z,8.80
2022-11-26T03:18:15.725Z,8.80
2022-11-26T03:20:42.458Z,8.70
2022-11-26T03:23:09.160Z,8.70
2022-11-26T03:25:36.172Z,8.70
2022-11-26T03:28:03.008Z,9.70
2022-11-26T03:30:29.649Z,8.70
2022-11-26T03:32:57.112Z,8.70
2022-11-26T03:35:24.028Z,8.70
2022-11-26T03:37:50.754Z,8.70
2022-11-26T03:40:17.753Z,8.70
2022-11-26T03:42:45.056Z,8.70
2022-11-26T03:45:12.399Z,8.70
2022-11-26T03:47:39.377Z,8.70
2022-11-26T03:50:07.070Z,8.70
2022-11-26T03:52:33.778Z,8.70
2022-11-26T03:55:00.444Z,8.70
2022-11-26T03:57:27.048Z,8.60
2022-11-26T03:59:53.825Z,8.60
2022-11-26T04:02:20.449Z,8.60
2022-11-26T04:04:47.128Z,8.60
2022-11-26T04:07:13.816Z,8.60
2022-11-26T04:09:40.454Z,8.60
2022-11-26T04:12:07.102Z,8.60
2022-11-26T04:14:33.752Z,8.70
2022-11-26T04:17:00.559Z,8.60
2022-11-26T04:19:27.511Z,8.70
2022-11-26T04:21:54.189Z,8.70
2022-11-26T04:24:20.806Z,8.70
2022-11-26T04:26:47.521Z,8.60
2022-11-26T04:29:14.202Z,8.60
2022-11-26T04:31:40.903Z,9.70
2022-11-26T04:34:07.612Z,8.50
2022-11-26T04:36:34.274Z,8.50
2022-11-26T04:39:01.038Z,8.50
2022-11-26T04:41:27.947Z,8.60
2022-11-26T04:43:54.652Z,8.50
2022-11-26T04:46:21.348Z,8.50
2022-11-26T04:48:47.999Z,8.50
2022-11-26T04:51:14.642Z,8.40
2022-11-26T04:53:41.352Z,8.40
2022-11-26T04:56:07.990Z,8.40
2022-11-26T04:58:34.776Z,8.40
2022-11-26T05:01:01.541Z,8.40
2022-11-26T05:03:28.261Z,8.40
2022-11-26T05:05:54.928Z,8.40
2022-11-26T05:08:21.602Z,8.40
2022-11-26T05:10:53.295Z,8.40
2022-11-26T05:13:19.986Z,8.30
2022-11-26T05:15:46.682Z,8.40
2022-11-26T05:18:13.383Z,8.40
2022-11-26T05:20:40.170Z,8.30
2022-11-26T05:23:06.785Z,8.30
2022-11-26T05:25:33.455Z,8.30
2022-11-26T05:28:00.126Z,8.30
2022-11-26T05:30:26.786Z,8.30
2022-11-26T05:32:53.458Z,8.30
2022-11-26T05:35:20.216Z,8.30
2022-11-26T05:37:46.916Z,8.30
2022-11-26T05:40:13.875Z,8.30
2022-11-26T05:42:40.550Z,8.30
2022-11-26T05:45:07.928Z,8.30
2022-11-26T05:47:34.724Z,8.30
2022-11-26T05:50:01.535Z,8.30
2022-11-26T05:52:28.165Z,8.30
2022-11-26T05:54:54.804Z,8.30
2022-11-26T05:57:21.576Z,8.20
2022-11-26T05:59:51.374Z,8.20
2022-11-26T06:02:18.154Z,8.10
2022-11-26T06:04:44.879Z,8.10
2022-11-26T06:07:11.694Z,8.10
2022-11-26T06:09:41.477Z,8.10
2022-11-26T06:12:08.292Z,8.10
2022-11-26T06:14:38.074Z,8.00
2022-11-26T06:17:07.041Z,8.00
2022-11-26T06:19:33.667Z,8.00
2022-11-26T06:22:00.310Z,8.00
2022-11-26T06:24:27.150Z,8.00
2022-11-26T06:26:53.801Z,8.00
2022-11-26T06:29:24.885Z,8.00
2022-11-26T06:31:54.541Z,8.00
2022-11-26T06:34:21.398Z,8.00
2022-11-26T06:36:48.166Z,7.90
2022-11-26T06:39:15.156Z,7.90
2022-11-26T06:41:42.130Z,7.90
2022-11-26T06:44:08.834Z,7.90
2022-11-26T06:46:36.155Z,7.90
2022-11-26T06:49:04.353Z,7.90
2022-11-26T06:51:31.634Z,7.90
2022-11-26T06:53:58.510Z,7.90
2022-11-26T06:56:25.222Z,7.90
2022-11-26T06:58:54.997Z,7.90
2022-11-26T07:01:26.283Z,7.90
2022-11-26T07:03:53.535Z,7.90
2022-11-26T07:06:25.640Z,7.90
2022-11-26T07:08:53.564Z,8.00
2022-11-26T07:11:20.989Z,7.90
2022-11-26T07:13:48.028Z,7.90
2022-11-26T07:16:15.338Z,7.80
2022-11-26T07:18:42.347Z,7.90
2022-11-26T07:21:13.228Z,7.90
2022-11-26T07:23:40.626Z,7.90
2022-11-26T07:26:08.293Z,7.80
2022-11-26T07:28:35.390Z,7.80
2022-11-26T07:31:09.217Z,7.80
2022-11-26T07:33:38.890Z,7.80
2022-11-26T07:36:07.795Z,7.80
2022-11-26T07:38:34.843Z,7.80
2022-11-26T07:41:07.126Z,7.70
2022-11-26T07:43:38.178Z,7.70
2022-11-26T07:46:06.427Z,7.60
2022-11-26T07:48:33.870Z,7.60
2022-11-26T07:51:01.332Z,7.50
2022-11-26T07:53:31.905Z,7.60
2022-11-26T07:55:58.539Z,7.50
2022-11-26T07:58:26.720Z,7.50
2022-11-26T08:00:54.984Z,7.50
2022-11-26T08:03:22.048Z,7.50
2022-11-26T08:05:48.714Z,7.50
2022-11-26T08:08:15.534Z,7.40
2022-11-26T08:10:42.229Z,7.40
2022-11-26T08:13:08.864Z,7.40
2022-11-26T08:15:37.702Z,7.40
2022-11-26T08:18:04.411Z,7.40
2022-11-26T08:20:33.103Z,7.50
2022-11-26T08:22:59.722Z,7.40
2022-11-26T08:25:26.444Z,7.40
2022-11-26T08:27:53.082Z,7.40
2022-11-26T08:30:19.764Z,7.40
2022-11-26T08:32:46.364Z,7.40
2022-11-26T08:35:13.200Z,8.10
2022-11-26T08:37:42.421Z,7.40
2022-11-26T08:40:09.661Z,7.40
2022-11-26T08:42:36.349Z,7.40
2022-11-26T08:45:03.170Z,7.40
2022-11-26T08:47:29.857Z,7.50
2022-11-26T08:49:56.565Z,7.40
2022-11-26T08:52:23.921Z,7.50
2022-11-26T08:54:50.680Z,7.50
2022-11-26T08:57:17.381Z,7.30
2022-11-26T08:59:44.044Z,7.40
2022-11-26T09:02:15.963Z,7.50
2022-11-26T09:04:45.178Z,7.60
2022-11-26T09:07:11.832Z,8.40
2022-11-26T09:09:38.847Z,7.50
2022-11-26T09:12:05.728Z,7.60
2022-11-26T09:14:37.715Z,7.60
2022-11-26T09:17:04.778Z,7.90
2022-11-26T09:19:32.120Z,7.60
2022-11-26T09:21:59.705Z,7.70
2022-11-26T09:24:26.496Z,8.30
2022-11-26T09:26:53.441Z,7.70
2022-11-26T09:29:22.512Z,7.80
2022-11-26T09:32:21.514Z,7.80
2022-11-26T09:34:37.533Z,7.80
2022-11-26T09:37:04.367Z,7.80
2022-11-26T09:39:31.663Z,7.90
2022-11-26T09:42:13.450Z,7.90
2022-11-26T09:44:55.073Z,8.00
2022-11-26T09:47:24.173Z,8.00
2022-11-26T09:50:10.955Z,8.10
2022-11-26T09:52:42.608Z,8.10
2022-11-26T09:55:18.723Z,8.10
2022-11-26T09:58:22.221Z,8.80
2022-11-26T10:00:53.773Z,8.20
2022-11-26T10:03:25.751Z,8.20
2022-11-26T10:06:09.797Z,8.10
2022-11-26T10:08:36.369Z,8.20
2022-11-26T10:11:37.975Z,8.30
2022-11-26T10:14:23.747Z,8.30
2022-11-26T10:17:28.087Z,8.30
2022-11-26T10:20:06.690Z,10.80
2022-11-26T10:22:57.129Z,8.40
2022-11-26T10:25:27.390Z,8.40
2022-11-26T10:27:56.779Z,8.40
2022-11-26T10:30:28.702Z,8.40
2022-11-26T10:32:56.569Z,8.50
2022-11-26T10:35:29.496Z,8.50
2022-11-26T10:37:57.430Z,8.50
2022-11-26T10:40:29.406Z,8.60
2022-11-26T10:43:10.961Z,8.60
2022-11-26T10:45:50.862Z,8.60
2022-11-26T10:48:32.016Z,8.60
2022-11-26T10:51:17.638Z,8.70
2022-11-26T10:53:57.038Z,8.70
2022-11-26T10:56:42.462Z,8.70
2022-11-26T10:59:31.457Z,8.80
2022-11-26T11:02:03.304Z,9.90
2022-11-26T11:04:38.467Z,8.90
2022-11-26T11:07:10.325Z,8.90
2022-11-26T11:13:43.427Z,9.00
2022-11-26T11:16:11.053Z,9.10
2022-11-26T11:18:37.946Z,9.10
2022-11-26T11:21:05.152Z,9.20
2022-11-26T11:24:06.663Z,9.20
2022-11-26T11:26:58.888Z,9.30
2022-11-26T11:30:24.658Z,9.30
2022-11-26T11:32:57.120Z,8.00
2022-11-26T11:35:34.117Z,8.30
2022-11-26T11:38:01.275Z,9.60
2022-11-26T11:40:36.422Z,11.20
2022-11-26T11:43:05.775Z,11.30
2022-11-26T11:45:45.523Z,9.70
2022-11-26T11:48:37.534Z,11.20
2022-11-26T11:51:26.109Z,9.80
2022-11-26T11:54:12.944Z,9.90
2022-11-26T11:56:54.561Z,9.90
2022-11-26T12:00:13.610Z,10.00
2022-11-26T12:06:48.403Z,10.10
2022-11-26T12:10:14.576Z,10.30
2022-11-26T12:15:15.496Z,10.40
2022-11-26T12:17:55.603Z,10.50
2022-11-26T12:20:44.995Z,10.50
2022-11-26T12:23:22.645Z,10.60
2022-11-26T12:25:58.968Z,10.70
2022-11-26T12:28:37.573Z,10.70
2022-11-26T12:31:39.839Z,10.80
2022-11-26T12:34:18.317Z,10.80
2022-11-26T12:36:45.072Z,10.90
2022-11-26T12:39:18.970Z,10.90
2022-11-26T12:41:52.652Z,11.00
2022-11-26T12:44:33.360Z,11.00
2022-11-26T12:47:02.777Z,11.10
2022-11-26T12:49:55.562Z,11.10
2022-11-26T12:52:41.008Z,11.20
2022-11-26T12:55:21.519Z,11.20
2022-11-26T12:57:59.008Z,11.20
2022-11-26T13:00:36.068Z,11.20
2022-11-26T13:03:14.744Z,11.30
2022-11-26T13:06:04.446Z,11.30
2022-11-26T13:08:42.436Z,11.30
2022-11-26T13:11:37.064Z,11.30
2022-11-26T13:14:21.958Z,11.30
2022-11-26T13:17:05.400Z,11.40
2022-11-26T13:19:44.928Z,11.40
2022-11-26T13:22:49.181Z,11.40
2022-11-26T13:25:32.220Z,11.40
2022-11-26T13:28:05.289Z,11.50
2022-11-26T13:30:50.590Z,11.50
2022-11-26T13:33:20.403Z,11.50
2022-11-26T13:36:15.718Z,11.50
2022-11-26T13:38:48.316Z,11.50
2022-11-26T13:41:33.746Z,11.60
2022-11-26T13:44:39.409Z,11.60
2022-11-26T13:47:13.712Z,11.60
2022-11-26T13:50:03.133Z,11.60
2022-11-26T13:52:38.204Z,11.60
2022-11-26T13:55:09.914Z,11.70
2022-11-26T13:57:46.643Z,11.60
2022-11-26T14:00:28.828Z,11.70
2022-11-26T14:02:56.762Z,11.70
2022-11-26T14:05:23.695Z,11.70
2022-11-26T14:07:50.782Z,11.70
2022-11-26T14:10:41.393Z,11.70
2022-11-26T14:13:10.062Z,11.70
2022-11-26T14:15:42.654Z,11.60
2022-11-26T14:18:14.142Z,11.70
2022-11-26T14:21:02.257Z,11.60
2022-11-26T14:23:45.372Z,11.60
2022-11-26T14:26:24.870Z,11.60
2022-11-26T14:28:54.603Z,11.60
2022-11-26T14:31:27.932Z,11.60
2022-11-26T14:33:57.946Z,11.60
2022-11-26T14:36:30.169Z,11.60
2022-11-26T14:39:13.633Z,11.50
2022-11-26T14:41:43.323Z,11.50
2022-11-26T14:44:14.726Z,11.50
2022-11-26T14:46:42.848Z,11.50
2022-11-26T14:49:29.372Z,11.50
2022-11-26T14:51:56.189Z,11.50
2022-11-26T14:54:31.132Z,11.40
2022-11-26T14:57:02.407Z,11.40
2022-11-26T14:59:30.541Z,11.40
2022-11-26T15:01:57.283Z,11.40
2022-11-26T15:04:30.746Z,11.30
2022-11-26T15:06:58.612Z,11.30
2022-11-26T15:09:27.913Z,11.30
2022-11-26T15:12:01.261Z,11.30
2022-11-26T15:14:35.316Z,11.20
2022-11-26T15:17:02.935Z,11.20
2022-11-26T15:19:33.326Z,11.20
2022-11-26T15:22:02.933Z,11.20
2022-11-26T15:24:29.780Z,11.20
2022-11-26T15:26:56.561Z,11.10
2022-11-26T15:29:34.114Z,11.10
2022-11-26T15:32:01.179Z,11.10
2022-11-26T15:34:29.406Z,11.00
2022-11-26T15:36:56.382Z,11.00
2022-11-26T15:39:30.045Z,11.00
2022-11-26T15:42:04.021Z,11.00
2022-11-26T15:44:31.944Z,10.90
2022-11-26T15:47:00.018Z,10.90
2022-11-26T15:49:37.200Z,10.90
2022-11-26T15:52:08.122Z,10.80
2022-11-26T15:55:11.006Z,10.80
2022-11-26T15:57:34.028Z,10.70
2022-11-26T16:00:04.304Z,10.70
2022-11-26T16:02:32.137Z,10.60
2022-11-26T16:05:02.166Z,10.60
2022-11-26T16:07:33.240Z,10.60
2022-11-26T16:10:23.286Z,10.50
2022-11-26T16:13:12.046Z,10.60
2022-11-26T16:16:01.896Z,10.60
2022-11-26T16:18:51.991Z,10.50
2022-11-26T16:21:24.467Z,10.50
2022-11-26T16:23:53.827Z,10.40
2022-11-26T16:26:20.742Z,10.40
2022-11-26T16:28:48.021Z,10.50
2022-11-26T16:31:16.210Z,10.40
2022-11-26T16:33:43.610Z,10.30
2022-11-26T16:36:32.655Z,10.30
2022-11-26T16:38:59.437Z,10.30
2022-11-26T16:41:26.665Z,10.20
2022-11-26T16:43:53.379Z,10.20
2022-11-26T16:46:23.704Z,10.10
2022-11-26T16:48:51.316Z,10.10
2022-11-26T16:51:19.537Z,10.00
2022-11-26T16:53:46.237Z,9.90
2022-11-26T16:56:45.280Z,9.90
2022-11-26T16:59:19.481Z,9.80
2022-11-26T17:01:46.928Z,9.80
2022-11-26T17:04:15.514Z,9.70
2022-11-26T17:06:43.445Z,9.70
2022-11-26T17:09:19.325Z,9.60
2022-11-26T17:11:46.548Z,9.60
2022-11-26T17:14:13.306Z,9.60
2022-11-26T17:16:42.578Z,9.60
2022-11-26T17:19:15.251Z,9.60
2022-11-26T17:21:42.202Z,9.50
2022-11-26T17:24:09.179Z,9.50
2022-11-26T17:26:36.021Z,9.40
2022-11-26T17:29:03.012Z,9.40
2022-11-26T17:31:29.988Z,9.40
2022-11-26T17:33:56.900Z,9.40
2022-11-26T17:36:24.025Z,9.30
2022-11-26T17:38:51.080Z,9.30
2022-11-26T17:41:18.202Z,9.20
2022-11-26T17:43:44.998Z,9.20
2022-11-26T17:46:19.859Z,9.20
2022-11-26T17:48:46.817Z,9.20
2022-11-26T17:51:14.398Z,9.20
2022-11-26T17:53:41.887Z,9.10
2022-11-26T17:56:17.619Z,9.00
2022-11-26T17:58:44.342Z,9.00
2022-11-26T18:01:11.355Z,9.00
2022-11-26T18:03:38.339Z,9.00
2022-11-26T18:06:05.358Z,9.00
2022-11-26T18:08:32.102Z,9.00
2022-11-26T18:10:58.984Z,8.90
2022-11-26T18:13:27.284Z,8.90
2022-11-26T18:16:00.684Z,8.90
2022-11-26T18:18:27.890Z,8.80
2022-11-26T18:20:55.009Z,8.80
2022-11-26T18:23:21.787Z,8.80
2022-11-26T18:25:48.531Z,8.70
2022-11-26T18:28:16.716Z,8.70
2022-11-26T18:30:44.638Z,8.60
2022-11-26T18:33:15.716Z,8.60
2022-11-26T18:35:42.909Z,8.50
2022-11-26T18:38:11.363Z,8.50
2022-11-26T18:40:40.442Z,8.50
2022-11-26T18:43:07.143Z,8.40
2022-11-26T18:45:33.918Z,8.30
2022-11-26T18:48:01.152Z,8.40
2022-11-26T18:50:27.882Z,8.30
2022-11-26T18:52:58.273Z,8.80
2022-11-26T18:55:25.074Z,8.30
2022-11-26T18:57:51.827Z,8.20
2022-11-26T19:00:18.863Z,8.20
2022-11-26T19:02:45.567Z,8.20
2022-11-26T19:05:12.422Z,8.20
2022-11-26T19:07:39.319Z,8.20
2022-11-26T19:10:06.691Z,8.20
2022-11-26T19:12:33.341Z,8.20
2022-11-26T19:15:00.011Z,8.20
2022-11-26T19:17:26.760Z,8.10
2022-11-26T19:19:53.455Z,8.10
2022-11-26T19:22:20.170Z,8.10
2022-11-26T19:24:48.125Z,8.00
2022-11-26T19:27:14.879Z,8.00
2022-11-26T19:29:41.760Z,8.00
2022-11-26T19:32:08.682Z,7.90
2022-11-26T19:34:35.398Z,7.90
2022-11-26T19:37:02.091Z,7.90
2022-11-26T19:39:28.871Z,7.90
2022-11-26T19:41:55.581Z,7.90
2022-11-26T19:44:22.358Z,7.80
2022-11-26T19:46:49.060Z,7.80
2022-11-26T19:49:15.800Z,7.80
2022-11-26T19:51:42.917Z,7.80
2022-11-26T19:54:10.289Z,7.80
2022-11-26T19:56:37.039Z,7.80
2022-11-26T19:59:03.880Z,7.80
2022-11-26T20:01:32.976Z,7.70
2022-11-26T20:04:01.578Z,7.80
2022-11-26T20:06:29.911Z,7.70
2022-11-26T20:08:58.294Z,7.60
2022-11-26T20:11:27.089Z,7.60
2022-11-26T20:13:53.837Z,7.60
2022-11-26T20:16:23.351Z,7.60
2022-11-26T20:18:50.420Z,7.60
2022-11-26T20:21:22.343Z,7.50
2022-11-26T20:23:49.997Z,7.50
2022-11-26T20:26:22.663Z,7.50
2022-11-26T20:28:49.898Z,7.40
2022-11-26T20:31:23.022Z,7.40
2022-11-26T20:33:51.366Z,7.40
2022-11-26T20:36:20.877Z,7.30
2022-11-26T20:38:54.512Z,7.30
2022-11-26T20:41:22.370Z,7.30
2022-11-26T20:43:54.950Z,7.30
2022-11-26T20:46:25.781Z,7.30
2022-11-26T20:48:52.929Z,7.20
2022-11-26T20:51:21.890Z,7.20
2022-11-26T20:53:50.484Z,7.20
2022-11-26T20:56:18.859Z,7.20
2022-11-26T20:58:45.556Z,7.30
2022-11-26T21:01:16.197Z,7.10
2022-11-26T21:03:43.340Z,7.10
2022-11-26T21:06:10.211Z,7.10
2022-11-26T21:08:36.870Z,7.00
2022-11-26T21:11:04.611Z,7.00
2022-11-26T21:13:31.407Z,7.00
2022-11-26T21:16:01.987Z,6.90
2022-11-26T21:18:28.897Z,6.90
2022-11-26T21:20:55.577Z,6.90
2022-11-26T21:23:22.255Z,6.90
2022-11-26T21:25:48.999Z,6.90
2022-11-26T21:28:15.732Z,6.90
2022-11-26T21:30:42.523Z,6.90
2022-11-26T21:33:09.720Z,6.90
2022-11-26T21:35:36.983Z,6.90
2022-11-26T21:38:04.816Z,6.90
2022-11-26T21:40:31.883Z,6.90
2022-11-26T21:42:58.550Z,6.90
2022-11-26T21:45:27.589Z,6.90
2022-11-26T21:47:54.424Z,6.90
2022-11-26T21:50:21.408Z,6.80
2022-11-26T21:52:48.314Z,6.80
2022-11-26T21:55:15.072Z,6.80
2022-11-26T21:57:41.766Z,6.70
2022-11-26T22:00:10.539Z,6.80
2022-11-26T22:02:37.276Z,6.70
2022-11-26T22:05:04.253Z,6.70
2022-11-26T22:07:31.394Z,6.70
2022-11-26T22:09:58.388Z,6.70
2022-11-26T22:12:25.122Z,6.70
2022-11-26T22:14:51.815Z,6.70
2022-11-26T22:17:18.514Z,6.60
2022-11-26T22:19:45.257Z,6.70
2022-11-26T22:22:11.951Z,6.60
2022-11-26T22:24:38.600Z,6.60
2022-11-26T22:27:05.353Z,6.60
2022-11-26T22:29:32.022Z,6.70
2022-11-26T22:31:58.729Z,6.60
2022-11-26T22:34:27.777Z,6.60
2022-11-26T22:36:54.504Z,6.60
2022-11-26T22:39:21.226Z,6.60
2022-11-26T22:41:48.832Z,6.60
2022-11-26T22:44:16.229Z,6.50
2022-11-26T22:46:43.058Z,6.60
2022-11-26T22:49:18.825Z,6.50
2022-11-26T22:51:47.294Z,6.50
2022-11-26T22:54:15.442Z,6.50
2022-11-26T22:56:42.320Z,6.50
2022-11-26T22:59:12.384Z,6.50
2022-11-26T23:01:39.268Z,6.50
2022-11-26T23:04:08.266Z,6.50
2022-11-26T23:06:36.398Z,6.50
2022-11-26T23:09:04.897Z,6.40
2022-11-26T23:11:38.850Z,6.40
2022-11-26T23:14:07.632Z,6.50
2022-11-26T23:16:35.632Z,6.40
2022-11-26T23:19:03.238Z,6.40
2022-11-26T23:21:32.203Z,6.40
2022-11-26T23:23:59.016Z,6.40
2022-11-26T23:26:28.117Z,6.40
2022-11-26T23:28:59.101Z,6.40
2022-11-26T23:31:34.502Z,6.40
2022-11-26T23:34:02.090Z,6.40
2022-11-26T23:36:29.500Z,6.40
2022-11-26T23:38:56.696Z,6.40
2022-11-26T23:41:23.446Z,6.40
2022-11-26T23:43:50.126Z,6.40
2022-11-26T23:46:28.551Z,6.40
2022-11-26T23:48:55.765Z,6.40
2022-11-26T23:51:27.648Z,6.40
2022-11-26T23:53:54.893Z,6.40
2022-11-26T23:56:27.209Z,6.40
2022-11-26T23:58:57.672Z,6.40
